Wetterdaten: Woche 15.08.05 - 21.08.05 (KW33)
Datum Zeit Temperatur Luftfeuchte Luftdruck Niederschlag Wind Richtung Sonne Solar Taupunkt Windchill
15.08.2005 00:00 12.4 C 100 % 1018.9 hPa 0.6 l/m 0.3 km/h (0 Bft) SO 0.00 h 0 W/m 12.4 C 12.4 C
15.08.2005 01:00 12.2 C 100 % 1018.9 hPa 0.3 l/m 6.8 km/h (2 Bft) W-NW 0.00 h 0 W/m 12.2 C 12.2 C
15.08.2005 02:00 11.9 C 100 % 1019.0 hPa 0.0 l/m 11.2 km/h (2 Bft) W-NW 0.00 h 0 W/m 11.9 C 11.9 C
15.08.2005 03:00 11.8 C 98 % 1019.0 hPa 0.0 l/m 16.9 km/h (3 Bft) W-NW 0.00 h 0 W/m 11.5 C 11.8 C
15.08.2005 04:00 11.5 C 99 % 1019.0 hPa 0.0 l/m 7.7 km/h (2 Bft) W-NW 0.00 h 0 W/m 11.3 C 11.5 C
15.08.2005 05:00 11.6 C 98 % 1019.1 hPa 0.0 l/m 0.2 km/h (0 Bft) S 0.00 h 0 W/m 11.3 C 11.6 C
15.08.2005 06:00 11.4 C 97 % 1019.2 hPa 0.0 l/m 0.0 km/h (0 Bft) N 0.00 h 7 W/m 11.0 C 11.4 C
15.08.2005 07:00 11.9 C 94 % 1019.2 hPa 0.0 l/m 0.4 km/h (0 Bft) W 0.30 h 96 W/m 10.9 C 11.9 C
15.08.2005 08:00 12.9 C 86 % 1019.2 hPa 0.0 l/m 0.1 km/h (0 Bft) N 0.17 h 118 W/m 10.6 C 12.9 C
15.08.2005 09:00 13.4 C 85 % 1018.9 hPa 0.0 l/m 1.0 km/h (0 Bft) W-NW 0.00 h 109 W/m 10.9 C 13.4 C
15.08.2005 10:00 13.2 C 89 % 1018.8 hPa 0.0 l/m 0.1 km/h (0 Bft) W-NW 0.00 h 57 W/m 11.4 C 13.2 C
15.08.2005 11:00 13.2 C 93 % 1019.4 hPa 2.9 l/m 0.1 km/h (0 Bft) N 0.00 h 68 W/m 12.2 C 13.2 C
15.08.2005 12:00 13.3 C 97 % 1019.4 hPa 2.9 l/m 2.6 km/h (1 Bft) SO 0.00 h 90 W/m 12.8 C 13.3 C
15.08.2005 13:00 13.2 C 97 % 1019.8 hPa 7.5 l/m 2.9 km/h (1 Bft) SO 0.00 h 66 W/m 12.7 C 13.2 C
15.08.2005 14:00 13.8 C 98 % 1019.7 hPa 1.6 l/m 4.1 km/h (1 Bft) O-SO 0.00 h 202 W/m 13.5 C 13.8 C
15.08.2005 15:00 14.8 C 94 % 1019.6 hPa 0.0 l/m 0.6 km/h (0 Bft) O 0.13 h 322 W/m 13.8 C 14.8 C
15.08.2005 16:00 15.0 C 92 % 1019.6 hPa 0.0 l/m 0.3 km/h (0 Bft) SW 0.03 h 207 W/m 13.7 C 15.0 C
15.08.2005 17:00 15.1 C 91 % 1019.6 hPa 0.0 l/m 1.4 km/h (1 Bft) W-NW 0.07 h 173 W/m 13.7 C 15.1 C
15.08.2005 18:00 14.4 C 94 % 1020.4 hPa 0.0 l/m 3.6 km/h (1 Bft) SO 0.00 h 55 W/m 13.4 C 14.4 C
15.08.2005 19:00 14.1 C 96 % 1020.8 hPa 0.0 l/m 3.7 km/h (1 Bft) SO 0.00 h 27 W/m 13.4 C 14.1 C
15.08.2005 20:00 14.0 C 95 % 1020.8 hPa 0.0 l/m 0.3 km/h (0 Bft) SO 0.10 h 21 W/m 13.3 C 14.0 C
15.08.2005 21:00 13.6 C 96 % 1021.6 hPa 0.3 l/m 0.4 km/h (0 Bft) SO 0.00 h 0 W/m 13.0 C 13.6 C
15.08.2005 22:00 13.3 C 97 % 1021.9 hPa 0.0 l/m 1.2 km/h (1 Bft) O-SO 0.00 h 0 W/m 12.8 C 13.3 C
15.08.2005 23:00 13.1 C 98 % 1021.9 hPa 0.0 l/m 0.2 km/h (0 Bft) O-SO 0.00 h 0 W/m 12.9 C 13.1 C
16.08.2005 00:00 13.3 C 98 % 1021.9 hPa 0.0 l/m 0.0 km/h (0 Bft) N 0.00 h 0 W/m 13.0 C 13.3 C
16.08.2005 01:00 13.3 C 98 % 1021.2 hPa 0.0 l/m 0.1 km/h (0 Bft) N 0.00 h 0 W/m 13.0 C 13.3 C
16.08.2005 02:00 13.2 C 98 % 1020.9 hPa 0.0 l/m 0.1 km/h (0 Bft) N 0.00 h 0 W/m 12.8 C 13.2 C
16.08.2005 03:00 13.2 C 98 % 1020.9 hPa 0.0 l/m 0.0 km/h (0 Bft) N 0.00 h 0 W/m 12.8 C 13.2 C
16.08.2005 04:00 13.1 C 98 % 1020.6 hPa 0.0 l/m 0.0 km/h (0 Bft) N 0.00 h 0 W/m 12.8 C 13.1 C
16.08.2005 05:00 13.2 C 98 % 1020.3 hPa 0.0 l/m 0.0 km/h (0 Bft) N 0.00 h 0 W/m 12.9 C 13.2 C
16.08.2005 06:00 13.2 C 97 % 1020.8 hPa 0.0 l/m 0.0 km/h (0 Bft) N 0.00 h 3 W/m 12.7 C 13.2 C
16.08.2005 07:00 13.0 C 94 % 1020.2 hPa 0.0 l/m 0.0 km/h (0 Bft) N 0.00 h 13 W/m 12.1 C 13.0 C
16.08.2005 08:00 13.4 C 94 % 1020.7 hPa 0.0 l/m 0.1 km/h (0 Bft) NW 0.00 h 52 W/m 12.4 C 13.4 C
16.08.2005 09:00 14.3 C 90 % 1020.7 hPa 0.0 l/m 0.3 km/h (0 Bft) NW 0.23 h 218 W/m 12.7 C 14.3 C
16.08.2005 10:00 16.2 C 82 % 1020.5 hPa 0.0 l/m 0.5 km/h (0 Bft) NW 0.87 h 556 W/m 13.0 C 16.2 C
16.08.2005 11:00 17.5 C 76 % 1020.3 hPa 0.0 l/m 6.1 km/h (2 Bft) O-SO 0.37 h 382 W/m 13.2 C 17.5 C
16.08.2005 12:00 19.3 C 67 % 1020.1 hPa 0.0 l/m 17.8 km/h (3 Bft) O-SO 0.93 h 754 W/m 13.0 C 19.3 C
16.08.2005 13:00 20.1 C 60 % 1019.4 hPa 0.0 l/m 16.6 km/h (3 Bft) O-SO 0.53 h 544 W/m 12.2 C 20.1 C
16.08.2005 14:00 19.4 C 62 % 1019.1 hPa 0.0 l/m 10.9 km/h (2 Bft) O-SO 0.07 h 308 W/m 11.8 C 19.4 C
16.08.2005 15:00 19.1 C 62 % 1019.3 hPa 0.0 l/m 12.9 km/h (3 Bft) O-SO 0.00 h 263 W/m 11.6 C 19.1 C
16.08.2005 16:00 18.8 C 62 % 1019.2 hPa 0.0 l/m 7.0 km/h (2 Bft) O-SO 0.30 h 280 W/m 11.2 C 18.8 C
16.08.2005 17:00 20.5 C 54 % 1018.9 hPa 0.0 l/m 5.4 km/h (1 Bft) O 0.87 h 441 W/m 11.0 C 20.5 C
16.08.2005 18:00 20.2 C 53 % 1018.6 hPa 0.0 l/m 12.4 km/h (3 Bft) O-SO 0.67 h 256 W/m 10.4 C 20.2 C
16.08.2005 19:00 18.9 C 58 % 1018.5 hPa 0.0 l/m 13.1 km/h (3 Bft) O-SO 0.88 h 120 W/m 10.4 C 18.9 C
16.08.2005 20:00 17.3 C 65 % 1018.3 hPa 0.0 l/m 3.4 km/h (1 Bft) O-NO 0.43 h 27 W/m 10.7 C 17.3 C
16.08.2005 21:00 16.2 C 70 % 1019.5 hPa 0.0 l/m 0.9 km/h (0 Bft) NO 0.00 h 0 W/m 10.6 C 16.2 C
16.08.2005 22:00 14.8 C 78 % 1019.6 hPa 0.0 l/m 0.1 km/h (0 Bft) N 0.00 h 0 W/m 11.1 C 14.8 C
16.08.2005 23:00 14.2 C 82 % 1019.7 hPa 0.0 l/m 0.2 km/h (0 Bft) N 0.00 h 0 W/m 11.3 C 14.2 C
17.08.2005 00:00 14.1 C 82 % 1019.0 hPa 0.0 l/m 0.8 km/h (0 Bft) N-NO 0.00 h 0 W/m 11.1 C 14.1 C
17.08.2005 01:00 13.7 C 83 % 1018.7 hPa 0.0 l/m 0.4 km/h (0 Bft) N 0.00 h 0 W/m 10.9 C 13.7 C
17.08.2005 02:00 11.8 C 90 % 1019.0 hPa 0.0 l/m 5.1 km/h (1 Bft) O-SO 0.00 h 0 W/m 10.2 C 11.8 C
17.08.2005 03:00 11.3 C 97 % 1019.1 hPa 0.0 l/m 7.2 km/h (2 Bft) O-SO 0.00 h 0 W/m 10.8 C 11.3 C
17.08.2005 04:00 10.4 C 98 % 1019.2 hPa 0.0 l/m 0.6 km/h (0 Bft) O-SO 0.00 h 0 W/m 10.1 C 10.4 C
17.08.2005 05:00 9.8 C 99 % 1019.3 hPa 0.0 l/m 0.0 km/h (0 Bft) N 0.00 h 0 W/m 9.7 C 9.8 C
17.08.2005 06:00 9.7 C 100 % 1019.3 hPa 0.0 l/m 0.2 km/h (0 Bft) O 0.07 h 19 W/m 9.7 C 9.7 C
17.08.2005 07:00 10.7 C 98 % 1019.1 hPa 0.0 l/m 0.7 km/h (0 Bft) O 0.78 h 124 W/m 10.5 C 10.7 C
17.08.2005 08:00 13.0 C 88 % 1018.8 hPa 0.0 l/m 0.0 km/h (0 Bft) N 1.00 h 295 W/m 11.0 C 13.0 C
17.08.2005 09:00 15.6 C 78 % 1018.5 hPa 0.0 l/m 4.4 km/h (1 Bft) O-SO 1.00 h 465 W/m 11.7 C 15.6 C
17.08.2005 10:00 18.2 C 70 % 1018.1 hPa 0.0 l/m 14.4 km/h (3 Bft) O-SO 1.00 h 601 W/m 12.5 C 18.2 C
17.08.2005 11:00 20.3 C 63 % 1017.9 hPa 0.0 l/m 19.9 km/h (4 Bft) O-SO 1.00 h 706 W/m 13.1 C 20.3 C
17.08.2005 12:00 21.6 C 59 % 1017.4 hPa 0.0 l/m 19.7 km/h (3 Bft) O-SO 1.00 h 764 W/m 13.3 C 21.6 C
17.08.2005 13:00 23.0 C 56 % 1016.5 hPa 0.0 l/m 20.0 km/h (4 Bft) O-SO 1.00 h 786 W/m 13.6 C 23.0 C
17.08.2005 14:00 24.2 C 51 % 1016.0 hPa 0.0 l/m 20.6 km/h (4 Bft) O-SO 1.00 h 774 W/m 13.6 C 24.2 C
17.08.2005 15:00 25.4 C 47 % 1015.2 hPa 0.0 l/m 19.3 km/h (3 Bft) O-SO 1.00 h 716 W/m 13.3 C 25.4 C
17.08.2005 16:00 25.8 C 44 % 1015.0 hPa 0.0 l/m 20.3 km/h (4 Bft) O-SO 1.00 h 598 W/m 12.4 C 25.8 C
17.08.2005 17:00 25.5 C 45 % 1014.5 hPa 0.0 l/m 17.2 km/h (3 Bft) O-SO 0.72 h 405 W/m 12.5 C 25.5 C
17.08.2005 18:00 24.5 C 47 % 1014.2 hPa 0.0 l/m 15.8 km/h (3 Bft) O-SO 0.97 h 324 W/m 12.3 C 24.5 C
17.08.2005 19:00 23.2 C 52 % 1014.4 hPa 0.0 l/m 4.5 km/h (1 Bft) O 1.00 h 147 W/m 12.7 C 23.2 C
17.08.2005 20:00 21.1 C 60 % 1015.0 hPa 0.0 l/m 1.2 km/h (1 Bft) O-SO 0.43 h 28 W/m 12.9 C 21.1 C
17.08.2005 21:00 19.7 C 67 % 1015.9 hPa 0.0 l/m 0.4 km/h (0 Bft) N-NO 0.00 h 0 W/m 13.4 C 19.7 C
17.08.2005 22:00 18.9 C 70 % 1016.0 hPa 0.0 l/m 0.5 km/h (0 Bft) N-NO 0.00 h 0 W/m 13.4 C 18.9 C
17.08.2005 23:00 17.5 C 78 % 1016.2 hPa 0.0 l/m 0.1 km/h (0 Bft) O-NO 0.00 h 0 W/m 13.5 C 17.5 C
18.08.2005 00:00 15.9 C 85 % 1016.4 hPa 0.0 l/m 0.0 km/h (0 Bft) N 0.00 h 0 W/m 13.4 C 15.9 C
18.08.2005 01:00 15.2 C 90 % 1016.5 hPa 0.0 l/m 0.7 km/h (0 Bft) O 0.00 h 0 W/m 13.6 C 15.2 C
18.08.2005 02:00 14.5 C 94 % 1016.6 hPa 0.0 l/m 0.4 km/h (0 Bft) O 0.00 h 0 W/m 13.5 C 14.5 C
18.08.2005 03:00 13.3 C 97 % 1016.7 hPa 0.0 l/m 0.4 km/h (0 Bft) O 0.00 h 0 W/m 12.8 C 13.3 C
18.08.2005 04:00 12.7 C 98 % 1016.8 hPa 0.0 l/m 0.0 km/h (0 Bft) N 0.00 h 0 W/m 12.4 C 12.7 C
18.08.2005 05:00 12.3 C 100 % 1016.9 hPa 0.0 l/m 0.0 km/h (0 Bft) N 0.00 h 0 W/m 12.2 C 12.3 C
18.08.2005 06:00 11.9 C 100 % 1016.8 hPa 0.0 l/m 0.0 km/h (0 Bft) N 0.00 h 13 W/m 11.9 C 11.9 C
18.08.2005 07:00 13.7 C 96 % 1016.7 hPa 0.0 l/m 0.0 km/h (0 Bft) N 0.00 h 46 W/m 13.2 C 13.7 C
18.08.2005 08:00 14.8 C 90 % 1016.5 hPa 0.0 l/m 0.0 km/h (0 Bft) N 0.00 h 86 W/m 13.2 C 14.8 C
18.08.2005 09:00 16.2 C 86 % 1016.3 hPa 0.0 l/m 4.8 km/h (1 Bft) O-SO 0.00 h 137 W/m 13.8 C 16.2 C
18.08.2005 10:00 17.1 C 82 % 1016.2 hPa 0.0 l/m 11.6 km/h (2 Bft) O-SO 0.00 h 195 W/m 14.0 C 17.1 C
18.08.2005 11:00 18.1 C 78 % 1016.1 hPa 0.0 l/m 3.7 km/h (1 Bft) O-SO 0.00 h 283 W/m 14.2 C 18.1 C
18.08.2005 12:00 20.2 C 71 % 1015.7 hPa 0.0 l/m 4.2 km/h (1 Bft) O-SO 1.00 h 790 W/m 14.7 C 20.2 C
18.08.2005 13:00 21.7 C 65 % 1014.6 hPa 0.0 l/m 6.0 km/h (2 Bft) O-SO 1.00 h 751 W/m 14.8 C 21.7 C
18.08.2005 14:00 23.8 C 57 % 1013.7 hPa 0.0 l/m 4.7 km/h (1 Bft) W-NW 1.00 h 733 W/m 14.8 C 23.8 C
18.08.2005 15:00 26.1 C 51 % 1013.0 hPa 0.0 l/m 2.6 km/h (1 Bft) W-NW 1.00 h 668 W/m 15.2 C 26.1 C
18.08.2005 16:00 27.7 C 45 % 1012.1 hPa 0.0 l/m 3.7 km/h (1 Bft) W-NW 1.00 h 550 W/m 14.7 C 27.7 C
18.08.2005 17:00 27.9 C 46 % 1011.8 hPa 0.0 l/m 5.1 km/h (1 Bft) W 1.00 h 368 W/m 15.0 C 27.9 C
18.08.2005 18:00 26.1 C 52 % 1012.0 hPa 0.0 l/m 0.7 km/h (0 Bft) W 0.17 h 141 W/m 15.5 C 26.1 C
18.08.2005 19:00 23.9 C 62 % 1012.4 hPa 0.0 l/m 4.4 km/h (1 Bft) SO 0.00 h 32 W/m 16.1 C 23.9 C
18.08.2005 20:00 21.4 C 67 % 1013.7 hPa 0.0 l/m 16.6 km/h (3 Bft) SO 0.00 h 4 W/m 14.9 C 21.4 C
18.08.2005 21:00 20.1 C 74 % 1014.8 hPa 0.0 l/m 3.6 km/h (1 Bft) SO 0.00 h 0 W/m 15.3 C 20.1 C
18.08.2005 22:00 18.7 C 85 % 1015.5 hPa 0.0 l/m 1.9 km/h (1 Bft) O-SO 0.00 h 0 W/m 16.0 C 18.7 C
18.08.2005 23:00 18.4 C 88 % 1016.0 hPa 0.0 l/m 0.3 km/h (0 Bft) SO 0.00 h 0 W/m 16.3 C 18.4 C
19.08.2005 00:00 18.0 C 89 % 1016.1 hPa 0.0 l/m 0.9 km/h (0 Bft) O-SO 0.00 h 0 W/m 16.2 C 18.0 C
19.08.2005 01:00 17.7 C 91 % 1015.1 hPa 0.0 l/m 0.9 km/h (0 Bft) O 0.00 h 0 W/m 16.2 C 17.7 C
19.08.2005 02:00 17.4 C 91 % 1015.1 hPa 0.0 l/m 1.0 km/h (0 Bft) O-SO 0.00 h 0 W/m 15.9 C 17.4 C
19.08.2005 03:00 17.2 C 93 % 1015.2 hPa 0.0 l/m 1.7 km/h (1 Bft) O-SO 0.00 h 0 W/m 16.0 C 17.2 C
19.08.2005 04:00 17.3 C 93 % 1015.5 hPa 0.0 l/m 2.4 km/h (1 Bft) O-SO 0.00 h 0 W/m 16.2 C 17.3 C
19.08.2005 05:00 17.3 C 93 % 1015.3 hPa 0.0 l/m 1.2 km/h (1 Bft) O-SO 0.00 h 0 W/m 16.2 C 17.3 C
19.08.2005 06:00 17.1 C 95 % 1015.4 hPa 0.3 l/m 1.8 km/h (1 Bft) O-SO 0.00 h 9 W/m 16.2 C 17.1 C
19.08.2005 07:00 17.3 C 96 % 1016.2 hPa 0.6 l/m 0.2 km/h (0 Bft) O-SO 0.28 h 80 W/m 16.6 C 17.3 C
19.08.2005 08:00 17.6 C 93 % 1016.2 hPa 0.0 l/m 0.4 km/h (0 Bft) W-SW 0.33 h 158 W/m 16.4 C 17.6 C
19.08.2005 09:00 17.9 C 89 % 1016.1 hPa 0.3 l/m 1.2 km/h (1 Bft) W-NW 0.85 h 357 W/m 16.0 C 17.9 C
19.08.2005 10:00 18.6 C 85 % 1016.0 hPa 0.0 l/m 0.5 km/h (0 Bft) SO 0.70 h 448 W/m 16.0 C 18.6 C
19.08.2005 11:00 20.2 C 79 % 1015.8 hPa 0.0 l/m 1.4 km/h (1 Bft) SO 1.00 h 569 W/m 16.5 C 20.2 C
19.08.2005 12:00 22.5 C 71 % 1014.8 hPa 0.0 l/m 4.6 km/h (1 Bft) O-SO 1.00 h 712 W/m 16.8 C 22.5 C
19.08.2005 13:00 24.7 C 61 % 1014.2 hPa 0.0 l/m 3.4 km/h (1 Bft) O-SO 1.00 h 752 W/m 16.7 C 24.7 C
19.08.2005 14:00 26.1 C 53 % 1013.9 hPa 0.0 l/m 4.7 km/h (1 Bft) O-SO 0.97 h 669 W/m 15.9 C 26.1 C
19.08.2005 15:00 21.2 C 71 % 1015.2 hPa 14.6 l/m 12.4 km/h (3 Bft) W-NW 0.22 h 204 W/m 15.1 C 21.2 C
19.08.2005 16:00 19.8 C 96 % 1015.3 hPa 0.0 l/m 5.9 km/h (2 Bft) O-SO 0.25 h 291 W/m 19.1 C 19.8 C
19.08.2005 17:00 20.5 C 92 % 1014.7 hPa 0.0 l/m 0.0 km/h (0 Bft) N 0.00 h 144 W/m 19.1 C 20.5 C
19.08.2005 18:00 21.2 C 78 % 1015.0 hPa 0.0 l/m 14.7 km/h (3 Bft) W-NW 0.30 h 178 W/m 17.2 C 21.2 C
19.08.2005 19:00 19.6 C 71 % 1015.9 hPa 0.3 l/m 27.9 km/h (4 Bft) W-NW 0.00 h 27 W/m 14.1 C 19.6 C
19.08.2005 20:00 18.6 C 72 % 1016.4 hPa 0.0 l/m 15.7 km/h (3 Bft) W-NW 0.00 h 1 W/m 13.5 C 18.6 C
19.08.2005 21:00 17.1 C 87 % 1018.0 hPa 3.9 l/m 2.6 km/h (1 Bft) SO 0.00 h 0 W/m 14.9 C 17.1 C
19.08.2005 22:00 16.4 C 97 % 1018.9 hPa 2.3 l/m 3.8 km/h (1 Bft) SO 0.00 h 0 W/m 15.9 C 16.4 C
19.08.2005 23:00 16.1 C 99 % 1018.7 hPa 0.6 l/m 0.9 km/h (0 Bft) O-SO 0.00 h 0 W/m 15.9 C 16.1 C
20.08.2005 00:00 15.7 C 100 % 1018.6 hPa 0.0 l/m 0.8 km/h (0 Bft) O-SO 0.00 h 0 W/m 15.7 C 15.7 C
20.08.2005 01:00 16.0 C 100 % 1018.4 hPa 0.0 l/m 0.1 km/h (0 Bft) N 0.00 h 0 W/m 15.9 C 16.0 C
20.08.2005 02:00 16.2 C 100 % 1018.4 hPa 0.0 l/m 0.0 km/h (0 Bft) N 0.00 h 0 W/m 16.1 C 16.2 C
20.08.2005 03:00 16.2 C 100 % 1018.4 hPa 0.0 l/m 0.5 km/h (0 Bft) O-SO 0.00 h 0 W/m 16.2 C 16.2 C
20.08.2005 04:00 15.4 C 100 % 1018.3 hPa 0.0 l/m 1.6 km/h (1 Bft) O-SO 0.00 h 0 W/m 15.4 C 15.4 C
20.08.2005 05:00 15.6 C 99 % 1017.8 hPa 0.0 l/m 0.4 km/h (0 Bft) O-SO 0.00 h 0 W/m 15.6 C 15.6 C
20.08.2005 06:00 15.4 C 100 % 1017.5 hPa 0.0 l/m 0.2 km/h (0 Bft) N 0.00 h 3 W/m 15.4 C 15.4 C
20.08.2005 07:00 15.8 C 99 % 1018.3 hPa 0.0 l/m 0.0 km/h (0 Bft) N 0.00 h 18 W/m 15.7 C 15.8 C
20.08.2005 08:00 16.1 C 95 % 1018.4 hPa 0.0 l/m 4.8 km/h (1 Bft) NW 0.20 h 109 W/m 15.3 C 16.1 C
20.08.2005 09:00 16.3 C 88 % 1018.4 hPa 0.0 l/m 5.2 km/h (1 Bft) W-NW 0.00 h 139 W/m 14.4 C 16.3 C
20.08.2005 10:00 15.9 C 83 % 1018.4 hPa 0.0 l/m 10.7 km/h (2 Bft) W-NW 0.00 h 169 W/m 13.1 C 15.9 C
20.08.2005 11:00 16.7 C 81 % 1018.3 hPa 0.0 l/m 0.7 km/h (0 Bft) SW 0.00 h 262 W/m 13.3 C 16.7 C
20.08.2005 12:00 18.2 C 76 % 1017.5 hPa 0.0 l/m 1.9 km/h (1 Bft) O 0.57 h 494 W/m 13.8 C 18.2 C
20.08.2005 13:00 19.1 C 71 % 1017.0 hPa 0.0 l/m 1.3 km/h (1 Bft) O-SO 0.00 h 326 W/m 13.6 C 19.1 C
20.08.2005 14:00 17.8 C 79 % 1017.2 hPa 1.6 l/m 0.0 km/h (0 Bft) N 0.00 h 67 W/m 14.0 C 17.8 C
20.08.2005 15:00 15.5 C 89 % 1017.5 hPa 2.3 l/m 1.7 km/h (1 Bft) NW 0.00 h 58 W/m 13.7 C 15.5 C
20.08.2005 16:00 14.9 C 94 % 1017.6 hPa 3.9 l/m 2.4 km/h (1 Bft) W-NW 0.00 h 76 W/m 13.9 C 14.9 C
20.08.2005 17:00 15.1 C 95 % 1017.5 hPa 1.0 l/m 0.1 km/h (0 Bft) O-SO 0.00 h 80 W/m 14.3 C 15.1 C
20.08.2005 18:00 15.3 C 96 % 1017.5 hPa 0.0 l/m 0.0 km/h (0 Bft) N 0.00 h 35 W/m 14.6 C 15.3 C
20.08.2005 19:00 15.4 C 97 % 1017.5 hPa 0.0 l/m 0.0 km/h (0 Bft) N 0.00 h 24 W/m 15.0 C 15.4 C
20.08.2005 20:00 15.3 C 98 % 1017.5 hPa 0.0 l/m 0.0 km/h (0 Bft) N 0.00 h 3 W/m 15.1 C 15.3 C
20.08.2005 21:00 15.2 C 99 % 1017.5 hPa 0.0 l/m 0.0 km/h (0 Bft) N 0.00 h 0 W/m 15.1 C 15.2 C
20.08.2005 22:00 15.1 C 100 % 1017.5 hPa 0.0 l/m 0.0 km/h (0 Bft) N 0.00 h 0 W/m 15.1 C 15.1 C
20.08.2005 23:00 15.0 C 100 % 1017.3 hPa 0.0 l/m 0.0 km/h (0 Bft) N 0.00 h 0 W/m 15.0 C 15.0 C
21.08.2005 00:00 14.9 C 100 % 1017.4 hPa 0.0 l/m 0.0 km/h (0 Bft) N 0.00 h 0 W/m 14.9 C 14.9 C
21.08.2005 01:00 14.8 C 100 % 1016.6 hPa 0.0 l/m 0.0 km/h (0 Bft) N 0.00 h 0 W/m 14.8 C 14.8 C
21.08.2005 02:00 14.7 C 100 % 1016.5 hPa 0.0 l/m 0.0 km/h (0 Bft) N 0.00 h 0 W/m 14.7 C 14.7 C
21.08.2005 03:00 14.6 C 100 % 1016.5 hPa 0.0 l/m 0.0 km/h (0 Bft) N 0.00 h 0 W/m 14.6 C 14.6 C
21.08.2005 04:00 14.5 C 99 % 1015.8 hPa 0.0 l/m 0.1 km/h (0 Bft) N 0.00 h 0 W/m 14.4 C 14.5 C
21.08.2005 05:00 14.5 C 94 % 1015.5 hPa 0.0 l/m 0.4 km/h (0 Bft) O-NO 0.00 h 0 W/m 13.6 C 14.5 C
21.08.2005 06:00 14.5 C 95 % 1015.5 hPa 0.0 l/m 0.2 km/h (0 Bft) N 0.00 h 2 W/m 13.7 C 14.5 C
21.08.2005 07:00 14.7 C 92 % 1015.5 hPa 0.3 l/m 0.4 km/h (0 Bft) N-NO 0.00 h 10 W/m 13.4 C 14.7 C
21.08.2005 08:00 14.7 C 93 % 1015.5 hPa 0.0 l/m 0.6 km/h (0 Bft) O 0.00 h 26 W/m 13.5 C 14.7 C
21.08.2005 09:00 14.9 C 94 % 1015.5 hPa 0.0 l/m 0.0 km/h (0 Bft) N 0.00 h 27 W/m 14.0 C 14.9 C
21.08.2005 10:00 15.1 C 95 % 1015.4 hPa 0.6 l/m 0.0 km/h (0 Bft) N 0.00 h 71 W/m 14.4 C 15.1 C
21.08.2005 11:00 15.1 C 96 % 1014.9 hPa 0.6 l/m 0.0 km/h (0 Bft) N 0.00 h 59 W/m 14.5 C 15.1 C
21.08.2005 12:00 15.3 C 96 % 1014.4 hPa 0.3 l/m 0.2 km/h (0 Bft) NW 0.00 h 97 W/m 14.7 C 15.3 C
21.08.2005 13:00 15.8 C 95 % 1013.4 hPa 0.6 l/m 0.0 km/h (0 Bft) N 0.00 h 128 W/m 14.9 C 15.8 C
21.08.2005 14:00 16.0 C 96 % 1013.3 hPa 1.0 l/m 0.0 km/h (0 Bft) N 0.00 h 139 W/m 15.3 C 16.0 C
21.08.2005 15:00 16.5 C 95 % 1012.4 hPa 0.3 l/m 0.0 km/h (0 Bft) N 0.00 h 138 W/m 15.7 C 16.5 C
21.08.2005 16:00 16.9 C 95 % 1012.1 hPa 0.0 l/m 0.0 km/h (0 Bft) N 0.00 h 93 W/m 16.0 C 16.9 C
21.08.2005 17:00 16.6 C 96 % 1012.1 hPa 3.3 l/m 0.1 km/h (0 Bft) N 0.00 h 42 W/m 16.0 C 16.6 C
21.08.2005 18:00 16.4 C 98 % 1011.1 hPa 0.0 l/m 0.0 km/h (0 Bft) N 0.00 h 51 W/m 16.0 C 16.4 C
21.08.2005 19:00 16.2 C 99 % 1011.1 hPa 2.6 l/m 0.0 km/h (0 Bft) N 0.00 h 14 W/m 16.0 C 16.2 C
21.08.2005 20:00 16.1 C 100 % 1011.2 hPa 5.5 l/m 0.0 km/h (0 Bft) NW 0.00 h 2 W/m 16.1 C 16.1 C
21.08.2005 21:00 16.0 C 100 % 1011.2 hPa 0.6 l/m 0.0 km/h (0 Bft) N 0.00 h 0 W/m 16.0 C 16.0 C
21.08.2005 22:00 16.0 C 100 % 1011.2 hPa 0.6 l/m 0.0 km/h (0 Bft) N 0.00 h 0 W/m 16.0 C 16.0 C
21.08.2005 23:00 15.9 C 100 % 1011.2 hPa 0.0 l/m 0.0 km/h (0 Bft) N 0.00 h 0 W/m 15.9 C 15.9 C
Min-Datum _ 17.08.05 17.08.05 21.08.05 - 15.08.05 - - - 17.08.05 17.08.05
_ Min-Zeit 06:37 16:41 18:21 - 00:00 - - - 06:37 06:37
Minimum _ 9.4 C 42 % 1011.1 hPa - 0.0 km/h (0 Bft) - - - 9.4 C 9.4 C
Max-Datum _ 18.08.05 15.08.05 15.08.05 19.08.05 19.08.05 - 15.08.05 16.08.05 19.08.05 18.08.05
_ Max-Zeit 17:12 00:00 23:27 15:33 15:30 - 17:03 13:27 16:41 17:12
Maximum _ 28.4 C 100 % 1022.0 hPa 14.6 l/m 48.0 km/h
W-NW (6 Bft)
- 0.05 h 933 W/m 19.8 C 28.4 C
Durchschnitt _ 16.6 C 85 % 1017.1 hPa #64.7 l/m 3.5 km/h (1 Bft) O-SO #33:45 h 236 W/m 13.8 C 16.6 C

Durchschnitt Minimum Temp.16.2 C
Durchschnitt Maximum Temp.17.1 C
© Kaiko 2005